sensor_id;sensor_type;location;lat;lon;timestamp;P1;durP1;ratioP1;P2;durP2;ratioP2
16967;SDS011;64862;54.398;10.126;2023-02-18T00:07:28;28.13;;;3.92;;
16967;SDS011;64862;54.398;10.126;2023-02-18T00:17:33;30.30;;;4.13;;
16967;SDS011;64862;54.398;10.126;2023-02-18T00:27:37;32.25;;;4.35;;
16967;SDS011;64862;54.398;10.126;2023-02-18T00:37:39;36.25;;;4.75;;
16967;SDS011;64862;54.398;10.126;2023-02-18T00:47:42;37.63;;;4.95;;
16967;SDS011;64862;54.398;10.126;2023-02-18T00:57:44;36.72;;;4.90;;
16967;SDS011;64862;54.398;10.126;2023-02-18T01:07:47;39.53;;;4.45;;
16967;SDS011;64862;54.398;10.126;2023-02-18T01:17:49;38.90;;;4.47;;
16967;SDS011;64862;54.398;10.126;2023-02-18T01:27:53;28.40;;;4.03;;
16967;SDS011;64862;54.398;10.126;2023-02-18T01:37:56;35.72;;;3.78;;
16967;SDS011;64862;54.398;10.126;2023-02-18T01:48:02;31.85;;;4.00;;
16967;SDS011;64862;54.398;10.126;2023-02-18T01:58:07;31.80;;;3.80;;
16967;SDS011;64862;54.398;10.126;2023-02-18T02:08:11;37.40;;;4.10;;
16967;SDS011;64862;54.398;10.126;2023-02-18T02:18:20;39.33;;;4.35;;
16967;SDS011;64862;54.398;10.126;2023-02-18T02:28:43;33.43;;;3.80;;
16967;SDS011;64862;54.398;10.126;2023-02-18T02:49:11;28.05;;;3.70;;
16967;SDS011;64862;54.398;10.126;2023-02-18T02:59:21;34.88;;;4.07;;
16967;SDS011;64862;54.398;10.126;2023-02-18T03:09:29;26.40;;;3.40;;
16967;SDS011;64862;54.398;10.126;2023-02-18T03:19:44;32.65;;;4.05;;
16967;SDS011;64862;54.398;10.126;2023-02-18T03:29:51;34.23;;;3.27;;
16967;SDS011;64862;54.398;10.126;2023-02-18T03:40:00;32.20;;;3.57;;
16967;SDS011;64862;54.398;10.126;2023-02-18T03:50:03;34.53;;;3.53;;
16967;SDS011;64862;54.398;10.126;2023-02-18T04:00:08;36.08;;;4.30;;
16967;SDS011;64862;54.398;10.126;2023-02-18T04:10:13;39.10;;;4.05;;
16967;SDS011;64862;54.398;10.126;2023-02-18T04:20:16;36.53;;;4.90;;
16967;SDS011;64862;54.398;10.126;2023-02-18T04:30:19;36.00;;;3.88;;
16967;SDS011;64862;54.398;10.126;2023-02-18T04:40:22;29.42;;;2.92;;
16967;SDS011;64862;54.398;10.126;2023-02-18T04:50:24;37.08;;;4.03;;
16967;SDS011;64862;54.398;10.126;2023-02-18T05:00:27;28.30;;;3.65;;
16967;SDS011;64862;54.398;10.126;2023-02-18T05:10:29;35.42;;;3.70;;
16967;SDS011;64862;54.398;10.126;2023-02-18T05:20:33;34.58;;;4.00;;
16967;SDS011;64862;54.398;10.126;2023-02-18T05:30:35;27.73;;;3.22;;
16967;SDS011;64862;54.398;10.126;2023-02-18T05:40:38;24.38;;;2.80;;
16967;SDS011;64862;54.398;10.126;2023-02-18T05:50:40;21.13;;;2.67;;
16967;SDS011;64862;54.398;10.126;2023-02-18T06:00:44;22.75;;;2.20;;
16967;SDS011;64862;54.398;10.126;2023-02-18T06:10:46;15.68;;;2.28;;
16967;SDS011;64862;54.398;10.126;2023-02-18T06:20:49;20.75;;;2.22;;
16967;SDS011;64862;54.398;10.126;2023-02-18T06:30:51;15.25;;;1.60;;
16967;SDS011;64862;54.398;10.126;2023-02-18T06:40:54;12.07;;;1.70;;
16967;SDS011;64862;54.398;10.126;2023-02-18T06:50:56;18.00;;;1.60;;
16967;SDS011;64862;54.398;10.126;2023-02-18T07:01:00;12.75;;;1.48;;
16967;SDS011;64862;54.398;10.126;2023-02-18T07:11:02;14.48;;;1.80;;
16967;SDS011;64862;54.398;10.126;2023-02-18T07:21:06;10.93;;;1.50;;
16967;SDS011;64862;54.398;10.126;2023-02-18T07:31:08;3.08;;;0.90;;
16967;SDS011;64862;54.398;10.126;2023-02-18T07:41:15;6.78;;;0.90;;
16967;SDS011;64862;54.398;10.126;2023-02-18T07:51:18;5.13;;;0.90;;
16967;SDS011;64862;54.398;10.126;2023-02-18T08:01:22;4.65;;;0.80;;
16967;SDS011;64862;54.398;10.126;2023-02-18T08:11:24;3.65;;;0.70;;
16967;SDS011;64862;54.398;10.126;2023-02-18T08:21:27;3.33;;;0.75;;
16967;SDS011;64862;54.398;10.126;2023-02-18T08:31:30;9.65;;;2.30;;
16967;SDS011;64862;54.398;10.126;2023-02-18T08:41:36;4.50;;;1.10;;
16967;SDS011;64862;54.398;10.126;2023-02-18T08:51:38;5.78;;;1.02;;
16967;SDS011;64862;54.398;10.126;2023-02-18T09:01:41;4.93;;;1.00;;
16967;SDS011;64862;54.398;10.126;2023-02-18T09:11:43;4.35;;;0.93;;
16967;SDS011;64862;54.398;10.126;2023-02-18T09:21:47;8.48;;;1.10;;
16967;SDS011;64862;54.398;10.126;2023-02-18T09:31:50;4.22;;;0.80;;
16967;SDS011;64862;54.398;10.126;2023-02-18T09:41:54;6.45;;;1.00;;
16967;SDS011;64862;54.398;10.126;2023-02-18T09:52:01;7.20;;;2.80;;
16967;SDS011;64862;54.398;10.126;2023-02-18T10:02:09;3.70;;;2.10;;
16967;SDS011;64862;54.398;10.126;2023-02-18T10:12:17;5.35;;;0.80;;
16967;SDS011;64862;54.398;10.126;2023-02-18T10:22:23;3.95;;;0.80;;
16967;SDS011;64862;54.398;10.126;2023-02-18T10:32:27;3.95;;;1.05;;
16967;SDS011;64862;54.398;10.126;2023-02-18T10:42:40;3.50;;;0.70;;
16967;SDS011;64862;54.398;10.126;2023-02-18T10:52:50;3.60;;;0.90;;
16967;SDS011;64862;54.398;10.126;2023-02-18T11:03:14;3.90;;;0.55;;
16967;SDS011;64862;54.398;10.126;2023-02-18T11:13:22;2.90;;;0.55;;
16967;SDS011;64862;54.398;10.126;2023-02-18T11:23:28;2.92;;;0.60;;
16967;SDS011;64862;54.398;10.126;2023-02-18T11:33:31;1.75;;;0.40;;
16967;SDS011;64862;54.398;10.126;2023-02-18T11:43:36;2.50;;;0.60;;
16967;SDS011;64862;54.398;10.126;2023-02-18T11:53:52;3.22;;;0.60;;
16967;SDS011;64862;54.398;10.126;2023-02-18T12:04:00;5.53;;;0.50;;
16967;SDS011;64862;54.398;10.126;2023-02-18T12:14:12;3.88;;;0.50;;
16967;SDS011;64862;54.398;10.126;2023-02-18T12:24:23;6.15;;;1.20;;
16967;SDS011;64862;54.398;10.126;2023-02-18T12:34:38;5.25;;;0.50;;
16967;SDS011;64862;54.398;10.126;2023-02-18T12:44:51;2.95;;;0.40;;
16967;SDS011;64862;54.398;10.126;2023-02-18T12:55:11;3.00;;;0.32;;
16967;SDS011;64862;54.398;10.126;2023-02-18T13:05:29;4.57;;;0.68;;
16967;SDS011;64862;54.398;10.126;2023-02-18T13:15:36;4.45;;;0.60;;
16967;SDS011;64862;54.398;10.126;2023-02-18T13:25:43;1.63;;;0.40;;
16967;SDS011;64862;54.398;10.126;2023-02-18T13:35:47;2.38;;;0.50;;
16967;SDS011;64862;54.398;10.126;2023-02-18T13:46:02;3.43;;;1.40;;
16967;SDS011;64862;54.398;10.126;2023-02-18T13:56:08;1.70;;;1.10;;
16967;SDS011;64862;54.398;10.126;2023-02-18T14:06:21;1.75;;;0.60;;
16967;SDS011;64862;54.398;10.126;2023-02-18T14:16:25;2.05;;;0.60;;
16967;SDS011;64862;54.398;10.126;2023-02-18T14:26:48;1.45;;;0.90;;
16967;SDS011;64862;54.398;10.126;2023-02-18T14:36:53;1.45;;;0.85;;
16967;SDS011;64862;54.398;10.126;2023-02-18T14:47:08;2.20;;;1.40;;
16967;SDS011;64862;54.398;10.126;2023-02-18T14:57:25;4.53;;;0.73;;
16967;SDS011;64862;54.398;10.126;2023-02-18T15:07:35;1.77;;;1.00;;
16967;SDS011;64862;54.398;10.126;2023-02-18T15:17:43;1.88;;;1.00;;
16967;SDS011;64862;54.398;10.126;2023-02-18T15:27:50;1.80;;;0.82;;
16967;SDS011;64862;54.398;10.126;2023-02-18T15:37:54;2.25;;;1.20;;
16967;SDS011;64862;54.398;10.126;2023-02-18T15:47:59;4.80;;;2.38;;
16967;SDS011;64862;54.398;10.126;2023-02-18T15:58:02;3.58;;;1.42;;
16967;SDS011;64862;54.398;10.126;2023-02-18T16:08:13;3.15;;;1.63;;
16967;SDS011;64862;54.398;10.126;2023-02-18T16:18:20;3.57;;;1.90;;
16967;SDS011;64862;54.398;10.126;2023-02-18T16:28:41;3.88;;;2.17;;
16967;SDS011;64862;54.398;10.126;2023-02-18T16:38:44;4.05;;;2.15;;
16967;SDS011;64862;54.398;10.126;2023-02-18T16:48:48;3.42;;;2.15;;
16967;SDS011;64862;54.398;10.126;2023-02-18T16:58:51;5.20;;;2.40;;
16967;SDS011;64862;54.398;10.126;2023-02-18T17:08:54;4.75;;;2.63;;
16967;SDS011;64862;54.398;10.126;2023-02-18T17:18:56;4.55;;;2.28;;
16967;SDS011;64862;54.398;10.126;2023-02-18T17:29:00;3.03;;;2.10;;
16967;SDS011;64862;54.398;10.126;2023-02-18T17:39:04;4.88;;;2.35;;
16967;SDS011;64862;54.398;10.126;2023-02-18T17:49:12;3.38;;;2.10;;
16967;SDS011;64862;54.398;10.126;2023-02-18T17:59:14;4.75;;;2.50;;
16967;SDS011;64862;54.398;10.126;2023-02-18T18:09:18;10.77;;;4.03;;
16967;SDS011;64862;54.398;10.126;2023-02-18T18:19:20;5.93;;;1.52;;
16967;SDS011;64862;54.398;10.126;2023-02-18T18:29:23;8.68;;;1.90;;
16967;SDS011;64862;54.398;10.126;2023-02-18T18:39:25;10.50;;;2.08;;
16967;SDS011;64862;54.398;10.126;2023-02-18T18:49:28;7.47;;;1.80;;
16967;SDS011;64862;54.398;10.126;2023-02-18T18:59:30;7.30;;;1.90;;
16967;SDS011;64862;54.398;10.126;2023-02-18T19:09:34;10.63;;;2.13;;
16967;SDS011;64862;54.398;10.126;2023-02-18T19:19:35;16.38;;;2.40;;
16967;SDS011;64862;54.398;10.126;2023-02-18T19:29:41;9.70;;;2.13;;
16967;SDS011;64862;54.398;10.126;2023-02-18T19:39:43;11.57;;;2.22;;
16967;SDS011;64862;54.398;10.126;2023-02-18T19:49:46;8.43;;;2.08;;
16967;SDS011;64862;54.398;10.126;2023-02-18T19:59:48;13.32;;;2.28;;
16967;SDS011;64862;54.398;10.126;2023-02-18T20:09:52;14.07;;;2.60;;
16967;SDS011;64862;54.398;10.126;2023-02-18T20:19:54;10.43;;;2.92;;
16967;SDS011;64862;54.398;10.126;2023-02-18T20:29:57;13.48;;;2.53;;
16967;SDS011;64862;54.398;10.126;2023-02-18T20:39:59;12.77;;;2.40;;
16967;SDS011;64862;54.398;10.126;2023-02-18T20:50:03;14.77;;;4.25;;
16967;SDS011;64862;54.398;10.126;2023-02-18T21:00:06;11.38;;;2.38;;
16967;SDS011;64862;54.398;10.126;2023-02-18T21:10:12;14.70;;;2.92;;
16967;SDS011;64862;54.398;10.126;2023-02-18T21:20:14;9.52;;;2.00;;
16967;SDS011;64862;54.398;10.126;2023-02-18T21:30:17;13.55;;;4.05;;
16967;SDS011;64862;54.398;10.126;2023-02-18T21:40:19;10.23;;;2.58;;
16967;SDS011;64862;54.398;10.126;2023-02-18T21:50:23;11.32;;;2.92;;
16967;SDS011;64862;54.398;10.126;2023-02-18T22:00:26;11.23;;;3.03;;
16967;SDS011;64862;54.398;10.126;2023-02-18T22:10:29;12.98;;;3.17;;
16967;SDS011;64862;54.398;10.126;2023-02-18T22:20:31;11.35;;;2.92;;
16967;SDS011;64862;54.398;10.126;2023-02-18T22:30:34;10.98;;;3.10;;
16967;SDS011;64862;54.398;10.126;2023-02-18T22:40:39;15.07;;;5.35;;
16967;SDS011;64862;54.398;10.126;2023-02-18T22:50:42;26.63;;;9.40;;
16967;SDS011;64862;54.398;10.126;2023-02-18T23:00:44;20.40;;;11.95;;
16967;SDS011;64862;54.398;10.126;2023-02-18T23:10:48;13.57;;;3.83;;
16967;SDS011;64862;54.398;10.126;2023-02-18T23:21:00;9.32;;;3.22;;
16967;SDS011;64862;54.398;10.126;2023-02-18T23:31:22;11.45;;;3.20;;
16967;SDS011;64862;54.398;10.126;2023-02-18T23:41:26;13.32;;;3.30;;
16967;SDS011;64862;54.398;10.126;2023-02-18T23:51:30;13.05;;;3.13;;
